createdAt,value
2022-10-24T00:02:49.761Z,100075.89
2022-10-24T00:07:01.623Z,100097.60
2022-10-24T00:11:14.655Z,100100.42
2022-10-24T00:15:22.985Z,100100.43
2022-10-24T00:19:31.611Z,100078.64
2022-10-24T00:23:40.057Z,100090.44
2022-10-24T00:27:47.624Z,100080.89
2022-10-24T00:31:55.850Z,100089.59
2022-10-24T00:36:03.464Z,100070.15
2022-10-24T00:40:13.499Z,100072.95
2022-10-24T00:44:24.388Z,100044.39
2022-10-24T00:48:35.990Z,100028.58
2022-10-24T00:52:47.505Z,100040.02
2022-10-24T00:57:00.865Z,100040.38
2022-10-24T01:01:09.631Z,100045.23
2022-10-24T01:05:19.352Z,100043.92
2022-10-24T01:09:50.896Z,100038.80
2022-10-24T01:14:02.020Z,100034.20
2022-10-24T01:18:14.270Z,100034.14
2022-10-24T01:22:25.061Z,100003.04
2022-10-24T01:26:47.256Z,99984.26
2022-10-24T01:31:01.107Z,99973.35
2022-10-24T01:35:16.974Z,99969.88
2022-10-24T01:39:25.333Z,99968.26
2022-10-24T01:43:36.394Z,99963.46
2022-10-24T01:47:48.119Z,99946.26
2022-10-24T01:51:58.592Z,99952.32
2022-10-24T01:56:07.483Z,99965.24
2022-10-24T02:00:22.687Z,99969.78
2022-10-24T02:04:33.696Z,99978.55
2022-10-24T02:08:46.151Z,99978.73
2022-10-24T02:12:57.313Z,99981.15
2022-10-24T02:17:05.673Z,99966.07
2022-10-24T02:21:25.612Z,99970.46
2022-10-24T02:25:38.196Z,99964.43
2022-10-24T02:29:52.476Z,99968.30
2022-10-24T02:34:00.805Z,99958.36
2022-10-24T02:38:16.402Z,99956.81
2022-10-24T02:42:25.748Z,99968.04
2022-10-24T02:46:33.628Z,99962.90
2022-10-24T02:50:43.262Z,99958.39
2022-10-24T02:54:51.563Z,99961.46
2022-10-24T02:58:59.668Z,99962.15
2022-10-24T03:03:07.626Z,99953.42
2022-10-24T03:07:15.161Z,99955.80
2022-10-24T03:11:23.121Z,99955.29
2022-10-24T03:15:30.923Z,99949.02
2022-10-24T03:19:39.166Z,99938.34
2022-10-24T03:23:47.240Z,99940.42
2022-10-24T03:27:55.054Z,99940.34
2022-10-24T03:32:03.065Z,99942.16
2022-10-24T03:36:11.290Z,99936.37
2022-10-24T03:40:18.926Z,99930.89
2022-10-24T03:44:27.545Z,99939.33
2022-10-24T03:48:35.391Z,99939.52
2022-10-24T03:52:45.505Z,99934.59
2022-10-24T03:56:53.675Z,99930.70
2022-10-24T04:01:01.628Z,99919.53
2022-10-24T04:05:11.133Z,99919.26
2022-10-24T04:09:19.247Z,99923.52
2022-10-24T04:13:27.664Z,99928.20
2022-10-24T04:17:35.620Z,99930.23
2022-10-24T04:21:44.096Z,99933.16
2022-10-24T04:25:52.344Z,99936.34
2022-10-24T04:30:00.197Z,99931.52
2022-10-24T04:34:08.165Z,99933.39
2022-10-24T04:38:15.764Z,99940.98
2022-10-24T04:42:26.217Z,99949.18
2022-10-24T04:46:34.500Z,99939.76
2022-10-24T04:50:44.611Z,99947.91
2022-10-24T04:54:52.300Z,99957.20
2022-10-24T04:59:00.208Z,99956.16
2022-10-24T05:03:07.910Z,99946.87
2022-10-24T05:07:16.150Z,99953.29
2022-10-24T05:11:24.144Z,99956.67
2022-10-24T05:15:32.200Z,99948.92
2022-10-24T05:19:40.247Z,99945.41
2022-10-24T05:23:48.373Z,99952.11
2022-10-24T05:27:57.119Z,99955.30
2022-10-24T05:32:05.013Z,99951.11
2022-10-24T05:36:13.760Z,99953.35
2022-10-24T05:40:21.593Z,99963.35
2022-10-24T05:44:29.457Z,99965.44
2022-10-24T05:48:37.444Z,99967.65
2022-10-24T05:52:47.114Z,99972.59
2022-10-24T05:56:56.175Z,99975.16
2022-10-24T06:01:05.053Z,99977.00
2022-10-24T06:05:14.236Z,99980.67
2022-10-24T06:09:22.555Z,99977.19
2022-10-24T06:13:35.183Z,99980.64
2022-10-24T06:17:44.862Z,99977.59
2022-10-24T06:21:52.614Z,99986.98
2022-10-24T06:26:01.381Z,99994.52
2022-10-24T06:30:12.257Z,100005.84
2022-10-24T06:38:33.944Z,100000.29
2022-10-24T06:42:43.340Z,99990.54
2022-10-24T06:46:51.080Z,99993.52
2022-10-24T06:51:00.416Z,99995.73
2022-10-24T06:55:09.770Z,100003.27
2022-10-24T06:59:18.908Z,100000.77
2022-10-24T07:03:27.886Z,100000.48
2022-10-24T07:07:35.828Z,99996.83
2022-10-24T07:11:43.378Z,99999.58
2022-10-24T07:15:55.172Z,100001.05
2022-10-24T07:20:04.382Z,99996.67
2022-10-24T07:24:14.803Z,99998.23
2022-10-24T07:28:23.610Z,99995.54
2022-10-24T07:32:30.922Z,99996.05
2022-10-24T07:36:41.543Z,99997.86
2022-10-24T07:40:54.432Z,100004.70
2022-10-24T07:45:02.819Z,100007.88
2022-10-24T07:49:11.502Z,100004.34
2022-10-24T07:53:19.375Z,100001.29
2022-10-24T07:57:27.639Z,100002.55
2022-10-24T08:01:35.798Z,99996.17
2022-10-24T08:05:44.093Z,99996.30
2022-10-24T08:09:52.353Z,100004.64
2022-10-24T08:14:02.788Z,99998.26
2022-10-24T08:18:10.813Z,99988.27
2022-10-24T08:22:18.991Z,99985.52
2022-10-24T08:26:28.390Z,99985.48
2022-10-24T08:30:36.110Z,99986.77
2022-10-24T08:34:44.039Z,99988.30
2022-10-24T08:38:51.929Z,99986.59
2022-10-24T08:42:59.451Z,99991.77
2022-10-24T08:47:10.564Z,99992.89
2022-10-24T08:51:31.055Z,99988.71
2022-10-24T08:55:50.236Z,99988.33
2022-10-24T09:00:01.379Z,99988.55
2022-10-24T09:04:13.256Z,99982.52
2022-10-24T09:08:26.415Z,99983.90
2022-10-24T09:12:40.433Z,99986.84
2022-10-24T09:16:50.132Z,99985.90
2022-10-24T09:20:58.127Z,99988.58
2022-10-24T09:25:08.244Z,99984.45
2022-10-24T09:29:18.535Z,99988.45
2022-10-24T09:33:30.521Z,99992.45
2022-10-24T09:37:47.120Z,99992.40
2022-10-24T09:41:55.640Z,99996.52
2022-10-24T09:46:09.043Z,99995.27
2022-10-24T09:50:24.799Z,99996.80
2022-10-24T09:54:35.386Z,99993.84
2022-10-24T09:58:43.969Z,99996.11
2022-10-24T10:03:03.109Z,99993.74
2022-10-24T10:07:14.627Z,99990.31
2022-10-24T10:11:30.904Z,99987.25
2022-10-24T10:15:41.460Z,99979.30
2022-10-24T10:19:49.555Z,99977.97
2022-10-24T10:24:02.417Z,99976.52
2022-10-24T10:28:23.360Z,99978.52
2022-10-24T10:32:35.004Z,99977.73
2022-10-24T10:36:48.270Z,99978.52
2022-10-24T10:41:00.849Z,99981.85
2022-10-24T10:45:19.638Z,99980.55
2022-10-24T10:49:31.631Z,99978.36
2022-10-24T10:53:43.886Z,99972.77
2022-10-24T10:57:55.484Z,99972.71
2022-10-24T11:02:10.386Z,99975.21
2022-10-24T11:06:28.564Z,99973.53
2022-10-24T11:10:39.606Z,99972.59
2022-10-24T11:14:50.140Z,99970.84
2022-10-24T11:19:01.314Z,99961.34
2022-10-24T11:23:15.599Z,99957.39
2022-10-24T11:27:27.837Z,99953.13
2022-10-24T11:31:38.850Z,99948.94
2022-10-24T11:36:01.662Z,99943.85
2022-10-24T11:40:14.790Z,99947.48
2022-10-24T11:44:38.115Z,99940.45
2022-10-24T11:53:06.584Z,99940.04
2022-10-24T11:57:17.130Z,99937.73
2022-10-24T12:01:50.469Z,99934.73
2022-10-24T12:06:21.737Z,99930.06
2022-10-24T12:10:42.212Z,99923.91
2022-10-24T12:15:00.921Z,99919.03
2022-10-24T12:19:12.276Z,99913.42
2022-10-24T12:23:24.904Z,99910.81
2022-10-24T12:27:36.307Z,99911.48
2022-10-24T12:31:44.193Z,99907.08
2022-10-24T12:35:56.689Z,99902.88
2022-10-24T12:40:41.802Z,99893.38
2022-10-24T12:44:51.443Z,99885.99
2022-10-24T12:49:18.385Z,99886.46
2022-10-24T12:53:43.972Z,99876.89
2022-10-24T12:57:51.793Z,99875.26
2022-10-24T13:02:22.547Z,99872.83
2022-10-24T13:06:34.335Z,99879.75
2022-10-24T13:10:47.676Z,99882.93
2022-10-24T13:15:18.838Z,99885.25
2022-10-24T13:19:27.341Z,99891.84
2022-10-24T13:23:35.974Z,99888.08
2022-10-24T13:27:43.973Z,99890.27
2022-10-24T13:31:56.306Z,99898.74
2022-10-24T13:36:16.398Z,99899.45
2022-10-24T13:40:30.639Z,99897.33
2022-10-24T13:44:46.263Z,99893.45
2022-10-24T13:48:54.428Z,99898.86
2022-10-24T13:53:04.894Z,99909.44
2022-10-24T13:57:30.909Z,99914.85
2022-10-24T14:05:51.701Z,99920.04
2022-10-24T14:10:02.066Z,99928.57
2022-10-24T14:14:23.939Z,99932.54
2022-10-24T14:18:33.243Z,99937.30
2022-10-24T14:22:42.853Z,99926.75
2022-10-24T14:26:53.512Z,99925.66
2022-10-24T14:31:03.119Z,99921.88
2022-10-24T14:35:15.603Z,99921.59
2022-10-24T14:39:25.201Z,99922.50
2022-10-24T14:43:34.012Z,99915.12
2022-10-24T14:47:46.041Z,99904.77
2022-10-24T14:51:56.427Z,99897.64
2022-10-24T14:56:04.106Z,99890.41
2022-10-24T15:00:23.807Z,99884.19
2022-10-24T15:04:40.400Z,99902.93
2022-10-24T15:08:51.331Z,99908.12
2022-10-24T15:13:05.051Z,99907.58
2022-10-24T15:17:32.491Z,99916.08
2022-10-24T15:21:44.863Z,99919.83
2022-10-24T15:26:06.052Z,99918.19
2022-10-24T15:30:17.609Z,99920.67
2022-10-24T15:34:28.193Z,99927.79
2022-10-24T15:38:40.486Z,99939.65
2022-10-24T15:42:51.530Z,99955.73
2022-10-24T15:46:59.753Z,99954.21
2022-10-24T15:51:07.968Z,99945.70
2022-10-24T15:55:20.004Z,99935.89
2022-10-24T15:59:27.807Z,99931.99
2022-10-24T16:03:37.480Z,99933.71
2022-10-24T16:07:45.925Z,99937.07
2022-10-24T16:11:54.812Z,99939.38
2022-10-24T16:16:02.898Z,99949.02
2022-10-24T16:20:12.151Z,99949.52
2022-10-24T16:24:19.938Z,99953.88
2022-10-24T16:28:29.228Z,99954.29
2022-10-24T16:32:37.513Z,99946.91
2022-10-24T16:36:45.914Z,99946.02
2022-10-24T16:40:56.016Z,99936.19
2022-10-24T16:45:05.578Z,99928.36
2022-10-24T16:49:13.439Z,99930.99
2022-10-24T16:53:21.895Z,99930.45
2022-10-24T16:57:37.053Z,99926.79
2022-10-24T17:01:45.179Z,99925.58
2022-10-24T17:05:53.036Z,99924.30
2022-10-24T17:10:01.225Z,99924.52
2022-10-24T17:14:10.752Z,99946.34
2022-10-24T17:18:20.400Z,99966.17
2022-10-24T17:22:28.460Z,99953.71
2022-10-24T17:27:00.885Z,99961.13
2022-10-24T17:31:09.501Z,99954.59
2022-10-24T17:35:20.849Z,99935.64
2022-10-24T17:39:32.442Z,99954.15
2022-10-24T17:43:41.989Z,99972.94
2022-10-24T17:47:50.193Z,99979.66
2022-10-24T17:51:58.338Z,99977.11
2022-10-24T17:56:07.006Z,99981.14
2022-10-24T18:00:16.936Z,99981.45
2022-10-24T18:04:24.436Z,99982.56
2022-10-24T18:08:32.776Z,99982.05
2022-10-24T18:12:42.014Z,99988.05
2022-10-24T18:16:50.187Z,99985.59
2022-10-24T18:21:08.939Z,99976.59
2022-10-24T18:25:21.774Z,99984.08
2022-10-24T18:29:31.382Z,99990.31
2022-10-24T18:33:42.213Z,99987.09
2022-10-24T18:37:49.985Z,99994.23
2022-10-24T18:42:03.040Z,99994.89
2022-10-24T18:46:14.083Z,99989.57
2022-10-24T18:50:24.223Z,100000.14
2022-10-24T18:54:33.011Z,100004.52
2022-10-24T18:58:41.685Z,100005.52
2022-10-24T19:03:05.587Z,100003.61
2022-10-24T19:07:13.662Z,100011.24
2022-10-24T19:11:24.572Z,100006.85
2022-10-24T19:15:33.211Z,100006.66
2022-10-24T19:19:41.798Z,100008.11
2022-10-24T19:23:49.609Z,100005.04
2022-10-24T19:27:57.820Z,100004.04
2022-10-24T19:32:09.878Z,100009.90
2022-10-24T19:36:19.364Z,100017.45
2022-10-24T19:40:27.777Z,100013.05
2022-10-24T19:44:35.571Z,100003.50
2022-10-24T19:48:45.767Z,100006.24
2022-10-24T19:52:58.869Z,100006.19
2022-10-24T19:57:09.847Z,100009.51
2022-10-24T20:01:26.087Z,100009.27
2022-10-24T20:05:36.551Z,100005.96
2022-10-24T20:09:50.529Z,100007.50
2022-10-24T20:13:58.768Z,100014.88
2022-10-24T20:18:06.433Z,100013.92
2022-10-24T20:22:14.449Z,100018.05
2022-10-24T20:26:24.060Z,100016.98
2022-10-24T20:30:32.416Z,100019.76
2022-10-24T20:34:40.230Z,100017.70
2022-10-24T20:38:56.704Z,100020.88
2022-10-24T20:43:07.334Z,100022.08
2022-10-24T20:47:15.185Z,100018.29
2022-10-24T20:51:24.165Z,100011.48
2022-10-24T20:55:43.860Z,100018.81
2022-10-24T20:59:52.841Z,100017.24
2022-10-24T21:04:01.532Z,100013.30
2022-10-24T21:08:09.699Z,100016.40
2022-10-24T21:12:17.615Z,100028.58
2022-10-24T21:16:26.854Z,100030.35
2022-10-24T21:20:35.014Z,100025.65
2022-10-24T21:24:42.902Z,100024.55
2022-10-24T21:28:54.016Z,100020.91
2022-10-24T21:33:10.980Z,100026.08
2022-10-24T21:37:18.660Z,100030.41
2022-10-24T21:41:26.846Z,100029.94
2022-10-24T21:45:35.625Z,100025.14
2022-10-24T21:49:44.000Z,100029.02
2022-10-24T21:53:53.242Z,100032.54
2022-10-24T21:58:01.365Z,100039.51
2022-10-24T22:02:09.977Z,100030.85
2022-10-24T22:06:19.237Z,100033.09
2022-10-24T22:10:27.052Z,100029.52
2022-10-24T22:14:36.280Z,100032.91
2022-10-24T22:18:45.094Z,100039.48
2022-10-24T22:22:53.171Z,100045.55
2022-10-24T22:27:00.857Z,100046.39
2022-10-24T22:31:10.666Z,100046.03
2022-10-24T22:35:20.719Z,100044.06
2022-10-24T22:39:31.016Z,100049.08
2022-10-24T22:43:40.062Z,100050.98
2022-10-24T22:58:58.264Z,100040.49
2022-10-24T23:03:14.137Z,100037.45
2022-10-24T23:07:27.636Z,100040.11
2022-10-24T23:11:37.278Z,100042.85
2022-10-24T23:15:45.761Z,100051.02
2022-10-24T23:19:55.638Z,100052.33
2022-10-24T23:24:04.481Z,100052.48
2022-10-24T23:28:19.843Z,100063.21
2022-10-24T23:32:30.155Z,100066.00
2022-10-24T23:36:38.929Z,100073.04
2022-10-24T23:40:48.111Z,100073.39
2022-10-24T23:44:56.804Z,100074.61
2022-10-24T23:49:22.368Z,100069.27
2022-10-24T23:53:36.515Z,100066.74
2022-10-24T23:57:45.278Z,100066.77
